Maria Madre — IVEJ — position and weather

sailwx.info

Track history (hours):
 
Tides and Currents Weather Stations Pressure Air Temp Water Temp Dewpoint Dewpoint Depression Visibility Wind Speed Wind Dir Waves Ship Positions

Maria Madre

Last reported at 2015-Apr-19 15:09 UTC. Time now 2015-Apr-19 17:40 UTC.
Position N 40°37' E 014°30'.

Length 28 m; draft 1.5 m.

Type: Passenger vessel. MMSI: 247212600.

Date/timePositionNaut miles runAvg speedWind from/ knotsBaromVisibWave heightAir tempDewpointWater temp
2015-Apr-19 15:09N 40°37' E 014°30'1 0.3
2015-Apr-19 13:30N 40°37' E 014°29'1 0.2
2015-Apr-19 10:12N 40°37' E 014°30'1 1.1
2015-Apr-19 09:21N 40°38' E 014°29'0 0.0
2015-Apr-18 13:24N 40°37' E 014°29'0 0.2
2015-Apr-18 12:21N 40°37' E 014°29'0 0.0
2015-Apr-18 11:33N 40°37' E 014°29'7 5.3
2015-Apr-18 10:11N 40°38' E 014°38'6 2.9
2015-Apr-18 08:05N 40°37' E 014°30'0 0.0
2015-Apr-17 15:10N 40°37' E 014°31'1 0.9
2015-Apr-17 13:32N 40°37' E 014°29'2 0.6
2015-Apr-17 10:12N 40°36' E 014°32'2 2.4
2015-Apr-17 09:15N 40°38' E 014°29'0 0.0
2015-Apr-16 12:11N 40°38' E 014°29'0 0.0
2015-Apr-16 11:14N 40°38' E 014°29'0 0.0
2015-Apr-16 10:28N 40°38' E 014°29'0 0.0
2015-Apr-15 16:32N 40°38' E 014°29'5 5.0
2015-Apr-15 15:32N 40°38' E 014°23'2 1.8
2015-Apr-15 14:30N 40°38' E 014°20'7 7.0
2015-Apr-15 13:32N 40°38' E 014°29'1 0.2
2015-Apr-15 10:05N 40°37' E 014°30'810.8
2015-Apr-15 09:19N 40°36' E 014°19'2 2.1
2015-Apr-15 08:27N 40°34' E 014°20'8 0.5
2015-Apr-14 16:30N 40°38' E 014°29'5 3.5
2015-Apr-14 15:05N 40°38' E 014°23'2 3.1
2015-Apr-14 14:33N 40°38' E 014°21'8 6.7
2015-Apr-14 13:22N 40°36' E 014°31'1 0.2
2015-Apr-14 10:13N 40°37' E 014°30'811.2
2015-Apr-14 09:27N 40°34' E 014°20'2 2.7
2015-Apr-14 08:33N 40°36' E 014°19'8 0.5
2015-Apr-13 16:33N 40°38' E 014°29'5 4.6
2015-Apr-13 15:28N 40°38' E 014°23'2 1.7
2015-Apr-13 14:28N 40°38' E 014°20'7 7.2
2015-Apr-13 13:32N 40°38' E 014°29'1 0.2
2015-Apr-13 10:08N 40°37' E 014°30'811.9
2015-Apr-13 09:27N 40°34' E 014°20'2 2.3
2015-Apr-13 08:29N 40°36' E 014°19'8 0.5
2015-Apr-12 15:09N 40°37' E 014°30'1 0.3
2015-Apr-12 11:33N 40°38' E 014°29'1 0.5
2015-Apr-12 10:28N 40°37' E 014°29'0 0.0
2015-Apr-12 09:32N 40°37' E 014°29'1 0.0
2015-Apr-11 16:29N 40°38' E 014°29'5 3.9
2015-Apr-11 15:13N 40°38' E 014°23'3 4.2
2015-Apr-11 14:24N 40°36' E 014°19'8 8.6
2015-Apr-11 13:29N 40°37' E 014°29'7 1.9
2015-Apr-11 09:31N 40°34' E 014°20'3 3.6
2015-Apr-11 08:34N 40°37' E 014°19'7 0.5
2015-Apr-10 16:28N 40°38' E 014°29'5 5.5
2015-Apr-10 15:33N 40°38' E 014°23'3 2.7
2015-Apr-10 14:21N 40°36' E 014°19'8 9.5
2015-Apr-10 13:28N 40°37' E 014°30'0 0.0
2015-Apr-10 10:08N 40°37' E 014°30'610.3
2015-Apr-10 09:31N 40°35' E 014°22'3 3.5
2015-Apr-10 08:32N 40°37' E 014°19'  
Track history (hours):
 
Tides and Currents Weather Stations Pressure Air Temp Water Temp Dewpoint Dewpoint Depression Visibility Wind Speed Wind Dir Waves Ship Positions

Maria Madre

Last reported at 2015-Apr-19 15:09 UTC. Time now 2015-Apr-19 17:40 UTC.
Position N 40°37' E 014°30'.

Length 28 m; draft 1.5 m.

Type: Passenger vessel. MMSI: 247212600.

Date/timePositionNaut miles runAvg speedWind from/ knotsBaromVisibWave heightAir tempDewpointWater temp
2015-Apr-19 15:09N 40°37' E 014°30'1 0.3
2015-Apr-19 13:30N 40°37' E 014°29'1 0.2
2015-Apr-19 10:12N 40°37' E 014°30'1 1.1
2015-Apr-19 09:21N 40°38' E 014°29'0 0.0
2015-Apr-18 13:24N 40°37' E 014°29'0 0.2
2015-Apr-18 12:21N 40°37' E 014°29'0 0.0
2015-Apr-18 11:33N 40°37' E 014°29'7 5.3
2015-Apr-18 10:11N 40°38' E 014°38'6 2.9
2015-Apr-18 08:05N 40°37' E 014°30'0 0.0
2015-Apr-17 15:10N 40°37' E 014°31'1 0.9
2015-Apr-17 13:32N 40°37' E 014°29'2 0.6
2015-Apr-17 10:12N 40°36' E 014°32'2 2.4
2015-Apr-17 09:15N 40°38' E 014°29'0 0.0
2015-Apr-16 12:11N 40°38' E 014°29'0 0.0
2015-Apr-16 11:14N 40°38' E 014°29'0 0.0
2015-Apr-16 10:28N 40°38' E 014°29'0 0.0
2015-Apr-15 16:32N 40°38' E 014°29'5 5.0
2015-Apr-15 15:32N 40°38' E 014°23'2 1.8
2015-Apr-15 14:30N 40°38' E 014°20'7 7.0
2015-Apr-15 13:32N 40°38' E 014°29'1 0.2
2015-Apr-15 10:05N 40°37' E 014°30'810.8
2015-Apr-15 09:19N 40°36' E 014°19'2 2.1
2015-Apr-15 08:27N 40°34' E 014°20'8 0.5
2015-Apr-14 16:30N 40°38' E 014°29'5 3.5
2015-Apr-14 15:05N 40°38' E 014°23'2 3.1
2015-Apr-14 14:33N 40°38' E 014°21'8 6.7
2015-Apr-14 13:22N 40°36' E 014°31'1 0.2
2015-Apr-14 10:13N 40°37' E 014°30'811.2
2015-Apr-14 09:27N 40°34' E 014°20'2 2.7
2015-Apr-14 08:33N 40°36' E 014°19'8 0.5
2015-Apr-13 16:33N 40°38' E 014°29'5 4.6
2015-Apr-13 15:28N 40°38' E 014°23'2 1.7
2015-Apr-13 14:28N 40°38' E 014°20'7 7.2
2015-Apr-13 13:32N 40°38' E 014°29'1 0.2
2015-Apr-13 10:08N 40°37' E 014°30'811.9
2015-Apr-13 09:27N 40°34' E 014°20'2 2.3
2015-Apr-13 08:29N 40°36' E 014°19'8 0.5
2015-Apr-12 15:09N 40°37' E 014°30'1 0.3
2015-Apr-12 11:33N 40°38' E 014°29'1 0.5
2015-Apr-12 10:28N 40°37' E 014°29'0 0.0
2015-Apr-12 09:32N 40°37' E 014°29'1 0.0
2015-Apr-11 16:29N 40°38' E 014°29'5 3.9
2015-Apr-11 15:13N 40°38' E 014°23'3 4.2
2015-Apr-11 14:24N 40°36' E 014°19'8 8.6
2015-Apr-11 13:29N 40°37' E 014°29'7 1.9
2015-Apr-11 09:31N 40°34' E 014°20'3 3.6
2015-Apr-11 08:34N 40°37' E 014°19'7 0.5
2015-Apr-10 16:28N 40°38' E 014°29'5 5.5
2015-Apr-10 15:33N 40°38' E 014°23'3 2.7
2015-Apr-10 14:21N 40°36' E 014°19'8 9.5
2015-Apr-10 13:28N 40°37' E 014°30'0 0.0
2015-Apr-10 10:08N 40°37' E 014°30'610.3
2015-Apr-10 09:31N 40°35' E 014°22'3 3.5
2015-Apr-10 08:32N 40°37' E 014°19'  

Dump ship's entire track history